Time;durP1;ratioP1;P1;durP2;ratioP2;P2;SDS_P1;SDS_P2;PMS_P1;PMS_P2;Temp;Humidity;BMP_temperature;BMP_pressure;BME280_temperature;BME280_humidity;BME280_pressure;Samples;Min_cycle;Max_cycle;Signal;HPM_P1;HPM_P2
2023/07/11 00:01:29;;;;;;;5.30;2.15;;;16.40;99.90;;;;;;7377044;32;20099;-55
2023/07/11 00:05:31;;;;;;;9.73;1.80;;;16.30;99.90;;;;;;7373151;32;20103;-55
2023/07/11 00:09:33;;;;;;;6.07;1.60;;;16.30;99.90;;;;;;7379754;32;20198;-54
2023/07/11 00:13:36;;;;;;;4.60;1.73;;;16.30;99.90;;;;;;7376749;32;20554;-56
2023/07/11 00:17:38;;;;;;;4.97;2.00;;;16.30;99.90;;;;;;7376973;32;20558;-56
2023/07/11 00:21:40;;;;;;;5.53;1.75;;;16.40;99.90;;;;;;7377238;32;20145;-54
2023/07/11 00:25:41;;;;;;;4.15;1.85;;;16.40;99.90;;;;;;7371515;32;20130;-55
2023/07/11 00:29:43;;;;;;;8.13;2.12;;;16.40;99.90;;;;;;7374711;32;20482;-56
2023/07/11 00:33:46;;;;;;;3.37;1.95;;;16.40;99.90;;;;;;7376595;32;20129;-56
2023/07/11 00:37:47;;;;;;;4.70;2.20;;;16.40;99.90;;;;;;7372671;32;20170;-55
2023/07/11 00:41:49;;;;;;;5.65;1.95;;;16.50;99.90;;;;;;7373823;32;20107;-55
2023/07/11 00:46:13;;;;;;;7.28;2.12;;;16.50;99.90;;;;;;7382672;32;20241;-55
2023/07/11 00:50:15;;;;;;;5.10;2.10;;;16.50;99.90;;;;;;7367023;32;20194;-56
2023/07/11 00:54:21;;;;;;;8.38;2.20;;;16.50;99.90;;;;;;7381344;32;20111;-56
2023/07/11 00:58:24;;;;;;;4.68;2.00;;;16.50;99.90;;;;;;7371276;32;20103;-56
2023/07/11 01:02:28;;;;;;;4.20;1.75;;;16.50;99.90;;;;;;7369454;32;20137;-55
2023/07/11 01:06:31;;;;;;;6.10;2.22;;;16.50;99.90;;;;;;7374293;32;20675;-55
2023/07/11 01:10:33;;;;;;;5.32;1.90;;;16.50;99.90;;;;;;7374375;32;20727;-55
2023/07/11 01:14:35;;;;;;;5.72;1.95;;;16.60;99.90;;;;;;7380544;32;20794;-56
2023/07/11 01:18:38;;;;;;;9.88;2.10;;;16.70;99.90;;;;;;7381499;32;20151;-55
2023/07/11 01:22:40;;;;;;;6.20;2.20;;;16.70;99.90;;;;;;7379620;32;20121;-55
2023/07/11 01:26:42;;;;;;;5.85;1.73;;;16.70;99.90;;;;;;7381156;32;20159;-55
2023/07/11 01:30:44;;;;;;;4.57;1.60;;;16.70;99.90;;;;;;7370150;32;20561;-55
2023/07/11 01:34:46;;;;;;;3.25;1.77;;;16.80;99.90;;;;;;7371772;32;20125;-55
2023/07/11 01:38:48;;;;;;;6.65;2.35;;;16.80;99.90;;;;;;7372998;32;20311;-55
2023/07/11 01:42:51;;;;;;;5.32;2.15;;;16.60;99.90;;;;;;7375442;32;20569;-55
2023/07/11 01:46:53;;;;;;;7.22;2.10;;;16.60;99.90;;;;;;7377011;32;20158;-55
2023/07/11 01:50:54;;;;;;;6.47;1.80;;;16.40;99.90;;;;;;7375549;32;20115;-55
2023/07/11 01:54:56;;;;;;;4.95;2.22;;;16.40;99.90;;;;;;7372618;32;20458;-56
2023/07/11 01:58:58;;;;;;;5.07;2.10;;;16.40;99.90;;;;;;7374286;32;20135;-55
2023/07/11 02:03:01;;;;;;;5.28;2.25;;;16.30;99.90;;;;;;7370836;32;20099;-56
2023/07/11 02:07:05;;;;;;;4.35;1.98;;;16.20;99.90;;;;;;7365910;32;20114;-56
2023/07/11 02:11:06;;;;;;;7.85;2.05;;;16.10;99.90;;;;;;7376492;32;20577;-55
2023/07/11 02:15:08;;;;;;;5.87;1.98;;;16.00;99.90;;;;;;7369061;32;20617;-55
2023/07/11 02:19:12;;;;;;;4.65;2.47;;;15.90;99.90;;;;;;7374708;32;20150;-55
2023/07/11 02:23:15;;;;;;;4.65;2.17;;;16.00;99.90;;;;;;7374332;32;20107;-55
2023/07/11 02:27:17;;;;;;;6.15;2.12;;;15.90;99.90;;;;;;7366988;32;20520;-55
2023/07/11 02:31:19;;;;;;;7.07;2.25;;;15.90;99.90;;;;;;7375423;32;20631;-55
2023/07/11 02:35:20;;;;;;;8.55;2.05;;;15.90;99.90;;;;;;7370254;32;20107;-55
2023/07/11 02:39:22;;;;;;;5.57;2.03;;;15.80;99.90;;;;;;7369536;32;20115;-55
2023/07/11 02:43:24;;;;;;;5.68;1.70;;;15.80;99.90;;;;;;7367924;32;20134;-55
2023/07/11 02:47:26;;;;;;;4.75;2.15;;;15.80;99.90;;;;;;7362199;32;20137;-55
2023/07/11 02:51:28;;;;;;;6.40;1.80;;;15.90;99.90;;;;;;7352318;32;20122;-55
2023/07/11 02:55:30;;;;;;;3.90;1.73;;;16.00;99.90;;;;;;7373623;32;20115;-55
2023/07/11 02:59:32;;;;;;;3.78;1.70;;;16.00;99.90;;;;;;7371394;32;20152;-55
2023/07/11 03:03:34;;;;;;;6.07;1.92;;;16.10;99.90;;;;;;7370902;32;20107;-55
2023/07/11 03:07:36;;;;;;;5.70;2.15;;;16.20;99.90;;;;;;7381554;32;20468;-55
2023/07/11 03:11:37;;;;;;;8.32;1.90;;;16.20;99.90;;;;;;7373562;32;20180;-56
2023/07/11 03:15:39;;;;;;;6.82;1.95;;;16.30;99.90;;;;;;7375823;32;20127;-55
2023/07/11 03:19:41;;;;;;;5.90;1.75;;;16.30;99.90;;;;;;7366558;32;20135;-56
2023/07/11 03:23:43;;;;;;;3.12;1.45;;;16.30;99.90;;;;;;7378495;32;20523;-55
2023/07/11 03:27:45;;;;;;;5.62;2.00;;;16.50;99.90;;;;;;7372424;32;20103;-56
2023/07/11 03:31:47;;;;;;;4.12;1.73;;;16.60;99.90;;;;;;7376550;32;20118;-56
2023/07/11 03:35:50;;;;;;;6.75;1.90;;;16.70;99.90;;;;;;7371348;32;20252;-55
2023/07/11 03:39:52;;;;;;;5.53;1.83;;;16.70;99.90;;;;;;7366460;32;20129;-55
2023/07/11 03:43:54;;;;;;;4.75;1.60;;;16.70;99.90;;;;;;7366849;32;20503;-55
2023/07/11 03:47:56;;;;;;;6.55;1.90;;;16.80;99.90;;;;;;7377446;32;20091;-56
2023/07/11 03:51:58;;;;;;;3.58;1.70;;;16.80;99.90;;;;;;7377611;32;20551;-55
2023/07/11 03:56:00;;;;;;;4.15;1.98;;;16.80;99.90;;;;;;7370177;32;20638;-55
2023/07/11 04:00:02;;;;;;;3.50;2.00;;;16.90;99.90;;;;;;7372279;32;20129;-55
2023/07/11 04:04:04;;;;;;;3.53;1.77;;;16.90;99.90;;;;;;7377033;32;20504;-55
2023/07/11 04:08:06;;;;;;;4.60;1.98;;;16.90;99.90;;;;;;7375706;32;20132;-56
2023/07/11 04:12:09;;;;;;;7.53;2.12;;;16.90;99.90;;;;;;7364915;32;20126;-56
2023/07/11 04:16:11;;;;;;;5.45;1.83;;;17.10;99.90;;;;;;7371908;32;20132;-55
2023/07/11 04:20:13;;;;;;;6.43;2.00;;;17.20;99.90;;;;;;7366812;32;20171;-55
2023/07/11 04:24:15;;;;;;;3.03;1.62;;;17.30;99.90;;;;;;7370055;32;20687;-56
2023/07/11 04:28:17;;;;;;;4.60;1.58;;;17.40;99.90;;;;;;7366975;32;20134;-55
2023/07/11 04:32:18;;;;;;;5.07;1.50;;;17.50;99.90;;;;;;7373321;32;20856;-56
2023/07/11 04:36:20;;;;;;;4.40;2.05;;;17.70;99.90;;;;;;7364038;32;20578;-55
2023/07/11 04:40:22;;;;;;;5.12;1.80;;;18.00;99.90;;;;;;7377467;32;20114;-55
2023/07/11 04:44:24;;;;;;;4.18;2.05;;;18.30;99.90;;;;;;7364193;32;20126;-55
2023/07/11 04:48:26;;;;;;;3.75;1.70;;;18.60;99.90;;;;;;7366378;32;20325;-57
2023/07/11 04:52:28;;;;;;;3.53;1.67;;;18.90;99.90;;;;;;7370545;32;20111;-56
2023/07/11 04:56:30;;;;;;;6.20;2.00;;;19.20;99.90;;;;;;7372998;32;20169;-57
2023/07/11 05:00:32;;;;;;;4.35;1.67;;;19.60;99.90;;;;;;7376658;32;20111;-57
2023/07/11 05:04:33;;;;;;;4.95;1.60;;;19.90;99.90;;;;;;7378707;32;20115;-57
2023/07/11 05:08:36;;;;;;;4.37;2.40;;;20.30;99.90;;;;;;7380102;32;20518;-57
2023/07/11 05:12:37;;;;;;;4.50;1.95;;;20.60;99.90;;;;;;7376429;32;20110;-57
2023/07/11 05:16:39;;;;;;;4.05;1.60;;;21.10;99.90;;;;;;7370662;32;20265;-56
2023/07/11 05:20:41;;;;;;;3.25;1.60;;;21.60;99.90;;;;;;7376428;32;20527;-57
2023/07/11 05:24:43;;;;;;;4.50;1.70;;;22.10;99.90;;;;;;7365255;32;20327;-57
2023/07/11 05:28:45;;;;;;;4.12;2.10;;;22.30;99.90;;;;;;7375600;32;20091;-57
2023/07/11 05:32:47;;;;;;;4.65;2.05;;;22.80;99.90;;;;;;7368638;32;20401;-57
2023/07/11 05:36:49;;;;;;;3.25;1.70;;;23.00;99.90;;;;;;7375470;32;20185;-57
2023/07/11 05:40:51;;;;;;;3.65;1.60;;;23.30;99.90;;;;;;7373650;32;20781;-57
2023/07/11 05:44:54;;;;;;;5.10;1.83;;;23.50;99.90;;;;;;7364550;32;20460;-57
2023/07/11 05:48:57;;;;;;;6.37;1.70;;;24.10;99.90;;;;;;7375064;32;20561;-58
2023/07/11 05:52:59;;;;;;;6.95;1.87;;;24.20;99.90;;;;;;7379263;32;20228;-57
2023/07/11 05:57:01;;;;;;;3.83;1.83;;;24.70;99.90;;;;;;7372831;32;20111;-57
2023/07/11 06:01:04;;;;;;;6.37;2.58;;;25.10;99.90;;;;;;7367474;32;20300;-57
2023/07/11 06:05:06;;;;;;;4.50;1.87;;;25.50;99.90;;;;;;7373527;32;20155;-57
2023/07/11 06:09:19;;;;;;;4.75;1.52;;;25.80;99.90;;;;;;7372732;32;20107;-57
2023/07/11 06:13:20;;;;;;;5.25;1.85;;;25.80;99.90;;;;;;7367921;32;20274;-57
2023/07/11 06:17:22;;;;;;;3.55;1.65;;;25.60;99.90;;;;;;7372932;32;20674;-57
2023/07/11 06:21:24;;;;;;;5.12;2.10;;;26.30;99.90;;;;;;7369479;32;20107;-57
2023/07/11 06:25:26;;;;;;;4.55;1.80;;;26.70;99.90;;;;;;7374948;32;20267;-57
2023/07/11 06:29:29;;;;;;;3.17;1.73;;;27.20;99.90;;;;;;7374857;32;20130;-57
2023/07/11 06:33:31;;;;;;;4.28;1.65;;;27.60;99.90;;;;;;7373530;32;20536;-57
2023/07/11 06:37:34;;;;;;;7.43;2.00;;;27.90;99.90;;;;;;7373992;32;20111;-57
2023/07/11 06:41:38;;;;;;;5.07;1.85;;;28.30;99.90;;;;;;7367389;32;20979;-57
2023/07/11 06:45:40;;;;;;;4.00;1.60;;;28.00;99.90;;;;;;7376544;32;20594;-57
2023/07/11 06:49:43;;;;;;;6.22;1.90;;;28.50;99.90;;;;;;7383102;32;20129;-57
2023/07/11 06:53:46;;;;;;;6.72;2.08;;;28.40;99.90;;;;;;7381615;32;20107;-57
2023/07/11 06:57:47;;;;;;;3.53;1.80;;;28.50;99.90;;;;;;7382730;32;20133;-57
2023/07/11 07:01:50;;;;;;;7.82;2.10;;;28.60;99.90;;;;;;7382490;32;20127;-57
2023/07/11 07:06:07;;;;;;;4.32;1.70;;;28.80;99.90;;;;;;7375957;32;20189;-57
2023/07/11 07:10:09;;;;;;;5.57;1.90;;;28.70;99.90;;;;;;7378544;32;20130;-57
2023/07/11 07:14:11;;;;;;;3.62;1.85;;;28.50;99.90;;;;;;7382590;32;20103;-57
2023/07/11 07:18:13;;;;;;;5.25;2.03;;;28.50;99.90;;;;;;7382378;32;20103;-58
2023/07/11 07:22:15;;;;;;;6.12;2.08;;;28.70;99.90;;;;;;7382697;32;20192;-57
2023/07/11 07:26:17;;;;;;;7.95;2.10;;;28.80;99.90;;;;;;7382570;32;20094;-57
2023/07/11 07:30:19;;;;;;;5.80;2.20;;;28.80;99.80;;;;;;7377594;32;20585;-57
2023/07/11 07:34:21;;;;;;;3.95;1.92;;;28.60;99.90;;;;;;7372422;32;20551;-57
2023/07/11 07:38:23;;;;;;;5.30;1.70;;;28.70;99.90;;;;;;7379019;32;20495;-58
2023/07/11 07:42:24;;;;;;;6.60;2.40;;;28.80;99.90;;;;;;7377993;32;20531;-57
2023/07/11 07:46:26;;;;;;;3.85;1.90;;;28.30;99.00;;;;;;7369734;32;20114;-58
2023/07/11 07:50:28;;;;;;;4.37;1.90;;;27.60;99.90;;;;;;7378762;32;20160;-57
2023/07/11 07:54:30;;;;;;;6.53;2.33;;;27.00;99.90;;;;;;7375565;32;20634;-57
2023/07/11 07:58:33;;;;;;;5.65;2.20;;;26.70;99.90;;;;;;7374578;32;20702;-57
2023/07/11 08:02:45;;;;;;;9.07;2.25;;;26.50;99.90;;;;;;7378701;32;20107;-57
2023/07/11 08:06:46;;;;;;;7.22;2.17;;;26.50;99.90;;;;;;7382997;32;20270;-57
2023/07/11 08:10:49;;;;;;;6.05;2.65;;;26.80;99.90;;;;;;7378628;32;20111;-57
2023/07/11 08:14:51;;;;;;;4.53;2.15;;;27.10;99.90;;;;;;7380723;32;20204;-57
2023/07/11 08:18:53;;;;;;;9.68;2.42;;;27.30;99.90;;;;;;7377753;32;20099;-57
2023/07/11 08:22:54;;;;;;;4.28;2.03;;;27.20;99.90;;;;;;7367058;32;20500;-57
2023/07/11 08:26:56;;;;;;;6.50;2.30;;;27.40;99.90;;;;;;7371776;32;20107;-57
2023/07/11 08:30:58;;;;;;;5.45;2.28;;;27.70;99.90;;;;;;7368240;32;20312;-57
2023/07/11 08:35:00;;;;;;;7.62;2.30;;;28.50;99.90;;;;;;7381038;32;20293;-57
2023/07/11 08:39:02;;;;;;;4.35;2.20;;;29.10;98.80;;;;;;7382702;32;20194;-57
2023/07/11 08:43:05;;;;;;;6.18;2.00;;;29.20;98.20;;;;;;7380918;32;20452;-57
2023/07/11 08:47:29;;;;;;;4.72;2.10;;;29.40;97.40;;;;;;7372183;32;20111;-57
2023/07/11 08:51:40;;;;;;;6.97;2.37;;;29.40;96.80;;;;;;7380536;32;20547;-57
2023/07/11 08:55:48;;;;;;;6.65;2.35;;;29.90;97.90;;;;;;7381796;32;20700;-57
2023/07/11 08:59:53;;;;;;;7.20;2.10;;;30.20;95.90;;;;;;7379450;32;20190;-57
2023/07/11 09:03:58;;;;;;;10.20;2.42;;;30.70;98.70;;;;;;7377732;32;20136;-58
2023/07/11 09:08:01;;;;;;;5.25;1.83;;;30.70;94.60;;;;;;7375303;32;20699;-57
2023/07/11 09:12:18;;;;;;;5.28;1.70;;;31.00;96.80;;;;;;7374631;32;20176;-58
2023/07/11 09:16:44;;;;;;;7.53;1.73;;;30.80;92.00;;;;;;7372936;32;20213;-57
2023/07/11 09:21:05;;;;;;;5.18;1.92;;;30.90;90.00;;;;;;7370030;32;20547;-57
2023/07/11 09:25:16;;;;;;;8.93;2.37;;;30.50;90.10;;;;;;7369968;32;20118;-58
2023/07/11 09:29:19;;;;;;;7.00;2.00;;;30.80;91.40;;;;;;7375405;32;20153;-57
2023/07/11 09:33:39;;;;;;;6.68;1.62;;;30.90;87.50;;;;;;7377928;32;20269;-57
2023/07/11 09:37:46;;;;;;;7.40;1.80;;;30.10;86.20;;;;;;7364309;32;20190;-57
2023/07/11 09:42:12;;;;;;;7.15;1.95;;;29.60;86.10;;;;;;7375633;32;20194;-58
2023/07/11 09:46:21;;;;;;;6.85;2.00;;;29.60;91.40;;;;;;7376398;32;20253;-57
2023/07/11 09:50:29;;;;;;;9.15;2.25;;;30.20;91.80;;;;;;7374580;32;20490;-57
2023/07/11 09:54:46;;;;;;;6.72;1.95;;;30.80;84.90;;;;;;7374554;32;20266;-57
2023/07/11 09:59:04;;;;;;;5.43;1.98;;;30.60;82.80;;;;;;7374014;32;20463;-57
2023/07/11 10:03:06;;;;;;;7.50;1.70;;;30.20;80.60;;;;;;7379790;32;20577;-57
2023/07/11 10:07:14;;;;;;;8.30;1.80;;;30.90;88.20;;;;;;7378721;32;20111;-57
2023/07/11 10:11:16;;;;;;;8.38;2.20;;;31.30;78.80;;;;;;7378839;32;20517;-57
2023/07/11 10:15:18;;;;;;;5.80;2.12;;;31.30;82.90;;;;;;7379699;32;20159;-57
2023/07/11 10:19:20;;;;;;;3.85;1.80;;;31.70;80.70;;;;;;7372739;32;20111;-57
2023/07/11 10:23:24;;;;;;;5.55;1.70;;;32.10;85.50;;;;;;7372029;32;20102;-57
2023/07/11 10:27:31;;;;;;;4.32;1.70;;;31.80;75.60;;;;;;7380973;32;20111;-57
2023/07/11 10:31:39;;;;;;;5.62;2.03;;;31.70;78.10;;;;;;7371761;32;20111;-57
2023/07/11 10:35:42;;;;;;;7.00;2.10;;;31.90;81.50;;;;;;7372138;32;20203;-57
2023/07/11 10:39:48;;;;;;;5.15;1.87;;;31.60;78.20;;;;;;7373937;32;20133;-57
2023/07/11 10:43:51;;;;;;;6.40;2.40;;;31.60;79.10;;;;;;7373421;32;20513;-57
2023/07/11 10:47:56;;;;;;;5.90;2.03;;;31.70;85.00;;;;;;7372448;32;20181;-57
2023/07/11 10:52:02;;;;;;;6.35;2.08;;;32.10;85.70;;;;;;7375104;32;20119;-57
2023/07/11 10:56:28;;;;;;;7.53;1.90;;;32.10;83.60;;;;;;7378523;32;20393;-57
2023/07/11 11:01:02;;;;;;;5.12;2.08;;;32.10;78.40;;;;;;7372533;32;20133;-57
2023/07/11 11:05:14;;;;;;;6.25;2.10;;;31.80;80.50;;;;;;7374951;32;20134;-57
2023/07/11 11:09:42;;;;;;;5.25;2.10;;;31.60;80.00;;;;;;7369188;32;20116;-57
2023/07/11 11:14:04;;;;;;;7.60;2.05;;;31.80;84.50;;;;;;7372377;32;20480;-57
2023/07/11 11:18:40;;;;;;;6.72;2.37;;;32.00;80.20;;;;;;7370306;32;20198;-57
2023/07/11 11:22:54;;;;;;;6.82;2.10;;;32.10;76.90;;;;;;7373720;32;20620;-57
2023/07/11 11:27:02;;;;;;;6.85;2.30;;;32.20;77.60;;;;;;7372180;32;20106;-57
2023/07/11 11:31:20;;;;;;;6.85;2.30;;;32.30;75.60;;;;;;7372032;32;20621;-57
2023/07/11 11:35:34;;;;;;;4.30;2.90;;;32.60;80.50;;;;;;7373186;32;20159;-57
2023/07/11 11:40:15;;;;;;;5.32;2.20;;;32.40;76.20;;;;;;7377709;32;20182;-57
2023/07/11 11:44:26;;;;;;;7.60;3.05;;;32.50;76.70;;;;;;7292092;32;20143;-58
2023/07/11 11:48:34;;;;;;;4.70;2.25;;;32.40;73.00;;;;;;7331647;32;20171;-57
2023/07/11 11:52:39;;;;;;;6.37;2.22;;;32.10;71.90;;;;;;7371285;32;20122;-57
2023/07/11 11:56:47;;;;;;;6.35;2.03;;;32.00;73.30;;;;;;7374418;32;20099;-57
2023/07/11 12:00:54;;;;;;;4.20;2.33;;;32.00;71.70;;;;;;7379293;32;20624;-57
2023/07/11 12:05:02;;;;;;;6.32;2.40;;;32.20;72.50;;;;;;7369808;32;20367;-57
2023/07/11 12:09:16;;;;;;;5.28;2.90;;;32.20;72.10;;;;;;7376768;32;20170;-57
2023/07/11 12:13:28;;;;;;;9.35;2.92;;;32.20;71.80;;;;;;7363595;32;20273;-57
2023/07/11 12:17:33;;;;;;;4.32;2.05;;;32.30;72.30;;;;;;7381436;32;20132;-57
2023/07/11 12:21:43;;;;;;;5.62;2.10;;;32.60;72.30;;;;;;7382512;32;20125;-57
2023/07/11 12:26:09;;;;;;;6.35;2.08;;;32.40;68.10;;;;;;7374300;32;20103;-57
2023/07/11 12:30:14;;;;;;;6.22;2.53;;;32.50;69.70;;;;;;7373863;32;20111;-57
2023/07/11 12:34:16;;;;;;;3.62;2.17;;;32.70;70.00;;;;;;7380667;32;20178;-57
2023/07/11 12:38:34;;;;;;;8.15;2.25;;;33.10;70.60;;;;;;7369119;32;20505;-57
2023/07/11 12:42:53;;;;;;;6.00;2.35;;;32.80;69.10;;;;;;7374576;32;20141;-57
2023/07/11 12:46:55;;;;;;;8.48;2.65;;;32.90;68.20;;;;;;7376493;32;20178;-57
2023/07/11 12:51:02;;;;;;;4.95;2.53;;;33.20;67.00;;;;;;7379885;32;20229;-57
2023/07/11 12:55:10;;;;;;;5.90;2.70;;;33.20;71.60;;;;;;7374326;32;20163;-57
2023/07/11 12:59:18;;;;;;;3.53;2.08;;;33.10;69.60;;;;;;7381287;32;20137;-57
2023/07/11 13:03:36;;;;;;;4.87;2.47;;;33.20;68.00;;;;;;7372323;32;20153;-57
2023/07/11 13:07:38;;;;;;;4.03;2.40;;;33.30;67.80;;;;;;7378995;32;20115;-57
2023/07/11 13:11:40;;;;;;;7.00;2.62;;;33.50;66.50;;;;;;7367499;32;20451;-57
2023/07/11 13:15:42;;;;;;;6.95;2.75;;;33.70;64.10;;;;;;7368244;32;20657;-57
2023/07/11 13:19:45;;;;;;;5.53;2.35;;;33.40;65.10;;;;;;7368499;32;20122;-58
2023/07/11 13:23:48;;;;;;;6.18;3.20;;;33.40;69.70;;;;;;7373208;32;20445;-58
2023/07/11 13:27:51;;;;;;;4.55;2.70;;;33.50;66.70;;;;;;7375838;32;20099;-58
2023/07/11 13:32:05;;;;;;;4.95;2.50;;;33.50;65.80;;;;;;7372162;32;20118;-57
2023/07/11 13:36:19;;;;;;;6.25;2.97;;;33.10;67.20;;;;;;7374317;32;20512;-58
2023/07/11 13:40:33;;;;;;;;;;;33.00;68.00;;;;;;7380319;32;20130;-58
2023/07/11 13:44:40;;;;;;;7.22;3.08;;;33.10;66.40;;;;;;7374684;32;20002;-58
2023/07/11 13:48:45;;;;;;;6.25;2.83;;;33.30;70.00;;;;;;7366912;32;20224;-58
2023/07/11 13:52:55;;;;;;;7.85;2.72;;;33.10;65.60;;;;;;7365929;32;20151;-58
2023/07/11 13:56:58;;;;;;;7.22;2.40;;;33.20;69.20;;;;;;7380808;32;20102;-58
2023/07/11 14:01:00;;;;;;;4.65;2.65;;;33.10;67.80;;;;;;7372593;32;20531;-57
2023/07/11 14:05:03;;;;;;;7.22;2.83;;;32.80;66.60;;;;;;7363202;32;20198;-58
2023/07/11 14:09:06;;;;;;;7.30;2.33;;;33.00;67.00;;;;;;7356993;32;20183;-58
2023/07/11 14:13:23;;;;;;;4.20;2.25;;;33.10;67.00;;;;;;7377859;32;20329;-58
2023/07/11 14:17:25;;;;;;;11.95;2.37;;;33.10;65.50;;;;;;7372612;32;20860;-58
2023/07/11 14:21:27;;;;;;;4.15;2.47;;;33.00;64.00;;;;;;7371959;32;20110;-58
2023/07/11 14:25:30;;;;;;;4.07;1.98;;;33.30;69.70;;;;;;7370926;32;20102;-56
2023/07/11 14:29:33;;;;;;;4.90;2.20;;;33.30;67.40;;;;;;7374610;32;20727;-57
2023/07/11 14:33:35;;;;;;;4.72;2.25;;;33.80;66.50;;;;;;7373559;32;20178;-57
2023/07/11 14:37:37;;;;;;;6.32;2.17;;;33.90;64.20;;;;;;7363305;32;20341;-59
2023/07/11 14:41:43;;;;;;;3.05;1.92;;;33.70;64.00;;;;;;7373572;32;20103;-57
2023/07/11 14:45:51;;;;;;;9.88;2.05;;;33.90;66.50;;;;;;7373518;32;20142;-58
2023/07/11 14:49:52;;;;;;;6.55;2.12;;;34.00;65.70;;;;;;7374153;32;20206;-57
2023/07/11 14:53:54;;;;;;;4.05;1.95;;;34.20;62.70;;;;;;7379870;32;20430;-57
2023/07/11 14:57:58;;;;;;;4.20;2.08;;;34.10;65.40;;;;;;7371384;32;20465;-57
2023/07/11 15:02:16;;;;;;;5.72;1.90;;;34.50;62.00;;;;;;7371073;32;20107;-56
2023/07/11 15:06:18;;;;;;;5.68;1.70;;;34.80;62.70;;;;;;7381337;32;20111;-57
2023/07/11 15:10:24;;;;;;;8.00;2.20;;;35.10;60.90;;;;;;7373859;32;20456;-58
2023/07/11 15:14:27;;;;;;;7.35;1.83;;;35.10;59.40;;;;;;7373939;32;20107;-57
2023/07/11 15:18:32;;;;;;;4.87;2.00;;;35.10;59.60;;;;;;7384451;32;20121;-57
2023/07/11 15:22:34;;;;;;;8.07;2.10;;;34.60;61.00;;;;;;7376767;32;20139;-58
2023/07/11 15:26:36;;;;;;;6.25;2.08;;;33.70;62.40;;;;;;7378166;32;20175;-57
2023/07/11 15:30:41;;;;;;;4.18;2.10;;;32.90;65.60;;;;;;7383529;32;20508;-57
2023/07/11 15:34:43;;;;;;;5.78;1.75;;;32.30;66.80;;;;;;7380227;32;20194;-57
2023/07/11 15:38:44;;;;;;;8.85;2.75;;;32.10;68.10;;;;;;7373463;32;20110;-57
2023/07/11 15:42:48;;;;;;;4.37;1.77;;;32.00;67.60;;;;;;7377382;32;20648;-57
2023/07/11 15:46:50;;;;;;;3.75;2.17;;;32.00;66.40;;;;;;7379487;32;20107;-58
2023/07/11 15:50:52;;;;;;;4.62;2.10;;;31.80;69.30;;;;;;7371564;32;20111;-57
2023/07/11 15:54:54;;;;;;;7.60;2.25;;;31.80;70.90;;;;;;7378748;32;20150;-57
2023/07/11 15:58:56;;;;;;;6.12;1.77;;;31.70;70.10;;;;;;7374916;32;20190;-57
2023/07/11 16:02:58;;;;;;;7.25;1.50;;;31.60;69.70;;;;;;7365567;32;20150;-57
2023/07/11 16:07:00;;;;;;;3.65;1.65;;;31.60;69.20;;;;;;7383478;32;20099;-57
2023/07/11 16:11:04;;;;;;;7.18;1.70;;;31.60;67.50;;;;;;7374811;32;20100;-57
2023/07/11 16:15:10;;;;;;;3.47;1.45;;;31.50;68.10;;;;;;7370671;32;20100;-57
2023/07/11 16:19:20;;;;;;;4.70;1.90;;;31.60;67.90;;;;;;7382339;32;20125;-57
2023/07/11 16:23:24;;;;;;;5.15;1.87;;;31.40;68.70;;;;;;7368925;32;20750;-57
2023/07/11 16:27:26;;;;;;;3.20;1.60;;;31.40;67.60;;;;;;7376407;32;20122;-57
2023/07/11 16:31:30;;;;;;;4.20;1.40;;;31.40;68.40;;;;;;7371907;32;20340;-57
2023/07/11 16:35:36;;;;;;;3.15;1.65;;;31.40;68.40;;;;;;7372342;32;20218;-57
2023/07/11 16:39:38;;;;;;;3.40;1.58;;;31.10;66.70;;;;;;7373658;32;20103;-58
2023/07/11 16:43:40;;;;;;;4.32;1.60;;;31.10;69.90;;;;;;7373144;32;20548;-57
2023/07/11 16:47:44;;;;;;;2.87;1.60;;;30.90;70.60;;;;;;7375098;32;20130;-57
2023/07/11 16:51:46;;;;;;;5.95;1.67;;;30.80;67.70;;;;;;7370536;32;20521;-58
2023/07/11 16:55:49;;;;;;;2.95;1.65;;;30.80;66.70;;;;;;7377142;32;20128;-58
2023/07/11 16:59:51;;;;;;;3.10;1.83;;;30.80;68.00;;;;;;7374809;32;20234;-58
2023/07/11 17:03:53;;;;;;;4.37;1.67;;;30.80;67.70;;;;;;7374714;32;20189;-58
2023/07/11 17:07:58;;;;;;;5.37;1.90;;;30.70;67.70;;;;;;7374805;32;20112;-57
2023/07/11 17:12:00;;;;;;;4.55;1.77;;;30.60;68.10;;;;;;7367523;32;20102;-57
2023/07/11 17:16:05;;;;;;;4.68;1.75;;;30.50;68.00;;;;;;7369034;32;20103;-57
2023/07/11 17:20:20;;;;;;;4.63;1.97;;;30.30;74.00;;;;;;7379771;32;20119;-57
2023/07/11 17:24:25;;;;;;;5.20;1.98;;;30.20;72.30;;;;;;7374101;32;20579;-59
2023/07/11 17:28:29;;;;;;;4.00;1.85;;;30.30;72.30;;;;;;7363103;32;20168;-58
2023/07/11 17:32:30;;;;;;;6.80;2.28;;;30.20;74.30;;;;;;7365046;32;20115;-58
2023/07/11 17:36:41;;;;;;;4.03;1.73;;;30.00;75.20;;;;;;7377921;32;20785;-58
2023/07/11 17:40:44;;;;;;;3.10;1.80;;;30.00;74.50;;;;;;7360662;32;20220;-58
2023/07/11 17:44:46;;;;;;;3.42;1.52;;;29.80;76.80;;;;;;7379615;32;20189;-58
2023/07/11 17:48:49;;;;;;;4.53;1.85;;;29.70;78.60;;;;;;7371299;32;20500;-58
2023/07/11 17:52:52;;;;;;;2.87;1.60;;;29.40;80.60;;;;;;7366038;32;20135;-58
2023/07/11 17:56:55;;;;;;;4.65;1.85;;;29.30;83.80;;;;;;7376684;32;20166;-58
2023/07/11 18:01:00;;;;;;;4.23;1.87;;;29.30;87.10;;;;;;7363265;32;20095;-58
2023/07/11 18:05:02;;;;;;;4.35;1.62;;;29.20;88.30;;;;;;7378626;32;20122;-58
2023/07/11 18:09:04;;;;;;;3.92;1.80;;;29.00;89.10;;;;;;7365045;32;20178;-58
2023/07/11 18:13:07;;;;;;;4.25;1.80;;;28.80;90.00;;;;;;7373558;32;20493;-58
2023/07/11 18:17:18;;;;;;;3.57;1.70;;;28.70;90.80;;;;;;7377064;32;20146;-58
2023/07/11 18:21:20;;;;;;;3.30;2.12;;;28.70;91.40;;;;;;7370508;32;20785;-58
2023/07/11 18:25:22;;;;;;;4.35;2.17;;;28.30;93.90;;;;;;7365374;32;20856;-57
2023/07/11 18:29:24;;;;;;;6.18;1.60;;;28.20;96.20;;;;;;7372004;32;20106;-57
2023/07/11 18:33:26;;;;;;;4.93;2.15;;;27.90;97.00;;;;;;7367743;32;20521;-58
2023/07/11 18:37:28;;;;;;;4.37;2.00;;;27.80;98.80;;;;;;7369686;32;20220;-58
2023/07/11 18:41:29;;;;;;;3.67;1.70;;;27.60;99.90;;;;;;7375291;32;20102;-58
2023/07/11 18:45:32;;;;;;;9.00;1.98;;;27.40;99.90;;;;;;7375240;32;20473;-57
2023/07/11 18:49:33;;;;;;;8.07;2.08;;;27.20;99.90;;;;;;7377006;32;20201;-57
2023/07/11 18:53:35;;;;;;;10.43;2.00;;;26.90;99.90;;;;;;7370094;32;20133;-57
2023/07/11 18:57:38;;;;;;;6.93;1.80;;;26.80;99.90;;;;;;7374890;32;20883;-57
2023/07/11 19:01:40;;;;;;;5.57;2.25;;;26.70;99.90;;;;;;7380725;32;20264;-57
2023/07/11 19:05:42;;;;;;;3.78;2.10;;;26.40;99.90;;;;;;7376083;32;20107;-57
2023/07/11 19:09:47;;;;;;;7.05;2.00;;;26.30;99.90;;;;;;7378828;32;20122;-57
2023/07/11 19:13:49;;;;;;;5.87;2.40;;;26.00;99.90;;;;;;7364702;32;20103;-57
2023/07/11 19:17:55;;;;;;;4.95;1.83;;;25.80;99.90;;;;;;7379249;32;20142;-57
2023/07/11 19:21:57;;;;;;;5.40;2.08;;;25.60;99.90;;;;;;7363394;32;20557;-57
2023/07/11 19:25:59;;;;;;;8.07;2.17;;;25.40;99.90;;;;;;7383091;32;20103;-57
2023/07/11 19:30:01;;;;;;;6.22;1.90;;;25.20;99.90;;;;;;7368688;32;20191;-57
2023/07/11 19:34:03;;;;;;;3.58;1.95;;;25.00;99.90;;;;;;7381679;32;20216;-56
2023/07/11 19:38:17;;;;;;;4.40;2.35;;;24.90;99.90;;;;;;7379883;32;20145;-57
2023/07/11 19:42:20;;;;;;;4.40;2.35;;;24.80;99.90;;;;;;7378607;32;20123;-57
2023/07/11 19:46:23;;;;;;;4.18;2.00;;;24.70;99.90;;;;;;7370367;32;20111;-57
2023/07/11 19:50:39;;;;;;;9.30;2.33;;;24.60;99.90;;;;;;7373672;32;20164;-57
2023/07/11 19:54:41;;;;;;;5.90;1.90;;;24.50;99.90;;;;;;7368535;32;20099;-57
2023/07/11 19:58:45;;;;;;;7.93;2.67;;;24.40;99.90;;;;;;7372967;32;20198;-56
2023/07/11 20:02:50;;;;;;;4.80;2.20;;;24.30;99.90;;;;;;7374279;32;20181;-56
2023/07/11 20:06:52;;;;;;;9.27;2.42;;;24.20;99.90;;;;;;7364075;32;20500;-56
2023/07/11 20:10:57;;;;;;;5.68;2.12;;;24.20;99.90;;;;;;7369726;32;20099;-55
2023/07/11 20:14:59;;;;;;;8.10;2.28;;;24.10;99.90;;;;;;7371320;32;20503;-56
2023/07/11 20:19:01;;;;;;;6.22;2.42;;;24.10;99.90;;;;;;7368550;32;20133;-56
2023/07/11 20:23:03;;;;;;;5.82;2.30;;;23.90;99.90;;;;;;7368142;32;20403;-56
2023/07/11 20:27:07;;;;;;;4.37;2.25;;;23.70;99.90;;;;;;7368531;32;20551;-57
2023/07/11 20:31:12;;;;;;;6.32;2.42;;;23.60;99.90;;;;;;7371993;32;20111;-57
2023/07/11 20:35:15;;;;;;;3.03;2.35;;;23.50;99.90;;;;;;7379700;32;20111;-57
2023/07/11 20:39:17;;;;;;;4.35;2.25;;;23.30;99.90;;;;;;7379576;32;20107;-58
2023/07/11 20:43:19;;;;;;;3.55;2.40;;;23.30;99.90;;;;;;7370235;32;20111;-57
2023/07/11 20:47:21;;;;;;;4.28;2.40;;;23.10;99.90;;;;;;7373465;32;20131;-57
2023/07/11 20:51:23;;;;;;;4.57;2.37;;;23.00;99.90;;;;;;7372736;32;20686;-57
2023/07/11 20:55:25;;;;;;;7.32;2.55;;;22.90;99.90;;;;;;7371929;32;20110;-55
2023/07/11 20:59:26;;;;;;;7.35;2.47;;;22.80;99.90;;;;;;7370499;32;20134;-56
2023/07/11 21:03:29;;;;;;;6.03;2.60;;;22.60;99.90;;;;;;7371826;32;20107;-56
2023/07/11 21:07:31;;;;;;;10.95;2.60;;;22.60;99.90;;;;;;7369432;32;20114;-56
2023/07/11 21:11:33;;;;;;;7.12;2.60;;;22.50;99.90;;;;;;7372554;32;20228;-56
2023/07/11 21:15:36;;;;;;;8.18;2.60;;;22.60;99.90;;;;;;7372530;32;20118;-56